sensor_id;sensor_type;location;lat;lon;timestamp;P1;durP1;ratioP1;P2;durP2;ratioP2
44764;SDS011;30484;52.382;5.260;2023-09-19T00:00:43;12.38;;;2.58;;
44764;SDS011;30484;52.382;5.260;2023-09-19T00:03:14;14.32;;;2.40;;
44764;SDS011;30484;52.382;5.260;2023-09-19T00:05:43;10.57;;;2.22;;
44764;SDS011;30484;52.382;5.260;2023-09-19T00:08:12;9.95;;;2.40;;
44764;SDS011;30484;52.382;5.260;2023-09-19T00:10:43;18.08;;;2.90;;
44764;SDS011;30484;52.382;5.260;2023-09-19T00:13:11;15.82;;;2.35;;
44764;SDS011;30484;52.382;5.260;2023-09-19T00:15:42;14.40;;;3.08;;
44764;SDS011;30484;52.382;5.260;2023-09-19T00:18:16;20.42;;;3.42;;
44764;SDS011;30484;52.382;5.260;2023-09-19T00:20:49;9.25;;;2.42;;
44764;SDS011;30484;52.382;5.260;2023-09-19T00:23:19;17.95;;;3.15;;
44764;SDS011;30484;52.382;5.260;2023-09-19T00:25:50;20.02;;;2.45;;
44764;SDS011;30484;52.382;5.260;2023-09-19T00:28:19;15.40;;;2.95;;
44764;SDS011;30484;52.382;5.260;2023-09-19T00:30:47;17.75;;;3.15;;
44764;SDS011;30484;52.382;5.260;2023-09-19T00:33:17;19.30;;;2.10;;
44764;SDS011;30484;52.382;5.260;2023-09-19T00:35:49;13.20;;;2.53;;
44764;SDS011;30484;52.382;5.260;2023-09-19T00:38:20;16.40;;;2.25;;
44764;SDS011;30484;52.382;5.260;2023-09-19T00:40:54;20.27;;;4.00;;
44764;SDS011;30484;52.382;5.260;2023-09-19T00:43:26;21.98;;;4.45;;
44764;SDS011;30484;52.382;5.260;2023-09-19T00:45:55;22.88;;;5.50;;
44764;SDS011;30484;52.382;5.260;2023-09-19T00:48:27;21.02;;;2.85;;
44764;SDS011;30484;52.382;5.260;2023-09-19T00:50:56;11.40;;;2.53;;
44764;SDS011;30484;52.382;5.260;2023-09-19T00:53:30;19.63;;;2.72;;
44764;SDS011;30484;52.382;5.260;2023-09-19T00:56:01;23.00;;;2.72;;
44764;SDS011;30484;52.382;5.260;2023-09-19T00:58:31;13.30;;;2.30;;
44764;SDS011;30484;52.382;5.260;2023-09-19T01:01:01;14.18;;;2.53;;
44764;SDS011;30484;52.382;5.260;2023-09-19T01:03:33;11.57;;;2.13;;
44764;SDS011;30484;52.382;5.260;2023-09-19T01:06:02;13.40;;;2.80;;
44764;SDS011;30484;52.382;5.260;2023-09-19T01:08:31;13.80;;;2.33;;
44764;SDS011;30484;52.382;5.260;2023-09-19T01:11:06;17.50;;;2.60;;
44764;SDS011;30484;52.382;5.260;2023-09-19T01:13:47;23.10;;;5.05;;
44764;SDS011;30484;52.382;5.260;2023-09-19T01:16:28;12.68;;;2.70;;
44764;SDS011;30484;52.382;5.260;2023-09-19T01:19:08;15.82;;;2.78;;
44764;SDS011;30484;52.382;5.260;2023-09-19T01:22:12;13.27;;;2.78;;
44764;SDS011;30484;52.382;5.260;2023-09-19T01:24:55;18.63;;;3.17;;
44764;SDS011;30484;52.382;5.260;2023-09-19T01:27:59;12.35;;;2.50;;
44764;SDS011;30484;52.382;5.260;2023-09-19T01:30:44;18.00;;;2.45;;
44764;SDS011;30484;52.382;5.260;2023-09-19T01:33:16;14.80;;;2.30;;
44764;SDS011;30484;52.382;5.260;2023-09-19T01:35:45;16.60;;;2.40;;
44764;SDS011;30484;52.382;5.260;2023-09-19T01:38:15;15.77;;;2.30;;
44764;SDS011;30484;52.382;5.260;2023-09-19T01:40:47;10.73;;;2.35;;
44764;SDS011;30484;52.382;5.260;2023-09-19T01:43:27;14.13;;;2.08;;
44764;SDS011;30484;52.382;5.260;2023-09-19T01:46:07;11.20;;;2.58;;
44764;SDS011;30484;52.382;5.260;2023-09-19T01:48:43;8.95;;;2.15;;
44764;SDS011;30484;52.382;5.260;2023-09-19T01:51:31;11.35;;;2.35;;
44764;SDS011;30484;52.382;5.260;2023-09-19T01:54:08;8.82;;;2.08;;
44764;SDS011;30484;52.382;5.260;2023-09-19T01:59:34;15.25;;;2.40;;
44764;SDS011;30484;52.382;5.260;2023-09-19T02:02:08;17.77;;;2.42;;
44764;SDS011;30484;52.382;5.260;2023-09-19T02:04:37;13.23;;;2.30;;
44764;SDS011;30484;52.382;5.260;2023-09-19T02:07:06;11.15;;;2.40;;
44764;SDS011;30484;52.382;5.260;2023-09-19T02:09:35;15.77;;;2.47;;
44764;SDS011;30484;52.382;5.260;2023-09-19T02:12:05;11.35;;;2.75;;
44764;SDS011;30484;52.382;5.260;2023-09-19T02:14:39;13.35;;;2.53;;
44764;SDS011;30484;52.382;5.260;2023-09-19T02:17:09;8.50;;;2.30;;
44764;SDS011;30484;52.382;5.260;2023-09-19T02:19:39;15.13;;;2.70;;
44764;SDS011;30484;52.382;5.260;2023-09-19T02:22:07;20.63;;;3.05;;
44764;SDS011;30484;52.382;5.260;2023-09-19T02:24:36;13.98;;;2.92;;
44764;SDS011;30484;52.382;5.260;2023-09-19T02:27:05;8.27;;;2.15;;
44764;SDS011;30484;52.382;5.260;2023-09-19T02:29:34;10.52;;;2.70;;
44764;SDS011;30484;52.382;5.260;2023-09-19T02:32:03;8.77;;;2.53;;
44764;SDS011;30484;52.382;5.260;2023-09-19T02:34:34;10.35;;;2.20;;
44764;SDS011;30484;52.382;5.260;2023-09-19T02:37:03;14.13;;;2.42;;
44764;SDS011;30484;52.382;5.260;2023-09-19T02:39:32;12.02;;;2.03;;
44764;SDS011;30484;52.382;5.260;2023-09-19T02:42:00;10.60;;;2.25;;
44764;SDS011;30484;52.382;5.260;2023-09-19T02:44:30;14.93;;;2.70;;
44764;SDS011;30484;52.382;5.260;2023-09-19T02:46:59;16.55;;;3.00;;
44764;SDS011;30484;52.382;5.260;2023-09-19T02:49:27;19.13;;;2.95;;
44764;SDS011;30484;52.382;5.260;2023-09-19T02:51:57;17.80;;;2.60;;
44764;SDS011;30484;52.382;5.260;2023-09-19T02:54:26;18.40;;;2.78;;
44764;SDS011;30484;52.382;5.260;2023-09-19T02:56:54;19.05;;;2.67;;
44764;SDS011;30484;52.382;5.260;2023-09-19T02:59:23;20.58;;;3.05;;
44764;SDS011;30484;52.382;5.260;2023-09-19T03:01:52;16.38;;;3.03;;
44764;SDS011;30484;52.382;5.260;2023-09-19T03:04:21;20.67;;;3.10;;
44764;SDS011;30484;52.382;5.260;2023-09-19T03:06:52;18.63;;;2.80;;
44764;SDS011;30484;52.382;5.260;2023-09-19T03:09:26;17.25;;;3.40;;
44764;SDS011;30484;52.382;5.260;2023-09-19T03:11:54;13.02;;;2.83;;
44764;SDS011;30484;52.382;5.260;2023-09-19T03:14:23;21.23;;;3.20;;
44764;SDS011;30484;52.382;5.260;2023-09-19T03:16:52;16.85;;;3.05;;
44764;SDS011;30484;52.382;5.260;2023-09-19T03:19:20;27.08;;;3.40;;
44764;SDS011;30484;52.382;5.260;2023-09-19T03:21:50;20.83;;;3.00;;
44764;SDS011;30484;52.382;5.260;2023-09-19T03:24:19;17.27;;;2.75;;
44764;SDS011;30484;52.382;5.260;2023-09-19T03:26:48;15.27;;;3.33;;
44764;SDS011;30484;52.382;5.260;2023-09-19T03:29:17;23.45;;;3.08;;
44764;SDS011;30484;52.382;5.260;2023-09-19T03:31:45;14.88;;;2.75;;
44764;SDS011;30484;52.382;5.260;2023-09-19T03:34:14;15.75;;;2.83;;
44764;SDS011;30484;52.382;5.260;2023-09-19T03:36:42;22.55;;;3.25;;
44764;SDS011;30484;52.382;5.260;2023-09-19T03:39:11;15.85;;;3.05;;
44764;SDS011;30484;52.382;5.260;2023-09-19T03:41:42;21.52;;;2.65;;
44764;SDS011;30484;52.382;5.260;2023-09-19T03:44:12;21.92;;;3.03;;
44764;SDS011;30484;52.382;5.260;2023-09-19T03:46:41;15.95;;;2.38;;
44764;SDS011;30484;52.382;5.260;2023-09-19T03:49:10;30.90;;;3.40;;
44764;SDS011;30484;52.382;5.260;2023-09-19T03:51:38;25.20;;;3.30;;
44764;SDS011;30484;52.382;5.260;2023-09-19T03:54:07;19.08;;;3.22;;
44764;SDS011;30484;52.382;5.260;2023-09-19T03:56:36;20.02;;;3.15;;
44764;SDS011;30484;52.382;5.260;2023-09-19T03:59:04;23.73;;;2.90;;
44764;SDS011;30484;52.382;5.260;2023-09-19T04:01:36;19.73;;;2.67;;
44764;SDS011;30484;52.382;5.260;2023-09-19T04:04:05;18.40;;;3.00;;
44764;SDS011;30484;52.382;5.260;2023-09-19T04:06:35;21.38;;;2.65;;
44764;SDS011;30484;52.382;5.260;2023-09-19T04:09:04;17.27;;;2.78;;
44764;SDS011;30484;52.382;5.260;2023-09-19T04:11:33;20.10;;;2.85;;
44764;SDS011;30484;52.382;5.260;2023-09-19T04:14:13;20.30;;;3.25;;
44764;SDS011;30484;52.382;5.260;2023-09-19T04:16:46;13.68;;;2.75;;
44764;SDS011;30484;52.382;5.260;2023-09-19T04:19:23;16.75;;;2.75;;
44764;SDS011;30484;52.382;5.260;2023-09-19T04:21:51;17.15;;;2.70;;
44764;SDS011;30484;52.382;5.260;2023-09-19T04:24:30;15.25;;;2.28;;
44764;SDS011;30484;52.382;5.260;2023-09-19T04:27:06;18.42;;;2.60;;
44764;SDS011;30484;52.382;5.260;2023-09-19T04:29:49;18.58;;;2.75;;
44764;SDS011;30484;52.382;5.260;2023-09-19T04:32:24;20.30;;;2.55;;
44764;SDS011;30484;52.382;5.260;2023-09-19T04:35:00;18.60;;;2.85;;
44764;SDS011;30484;52.382;5.260;2023-09-19T04:37:33;18.25;;;2.80;;
44764;SDS011;30484;52.382;5.260;2023-09-19T04:40:09;23.10;;;3.17;;
44764;SDS011;30484;52.382;5.260;2023-09-19T04:42:52;20.58;;;3.60;;
44764;SDS011;30484;52.382;5.260;2023-09-19T04:45:23;15.10;;;3.00;;
44764;SDS011;30484;52.382;5.260;2023-09-19T04:47:52;18.80;;;2.80;;
44764;SDS011;30484;52.382;5.260;2023-09-19T04:50:21;15.65;;;2.85;;
44764;SDS011;30484;52.382;5.260;2023-09-19T04:52:53;22.15;;;3.80;;
44764;SDS011;30484;52.382;5.260;2023-09-19T04:55:21;14.13;;;2.65;;
44764;SDS011;30484;52.382;5.260;2023-09-19T04:57:50;22.08;;;3.53;;
44764;SDS011;30484;52.382;5.260;2023-09-19T05:00:20;18.10;;;3.45;;
44764;SDS011;30484;52.382;5.260;2023-09-19T05:02:53;17.92;;;3.42;;
44764;SDS011;30484;52.382;5.260;2023-09-19T05:05:24;17.65;;;3.20;;
44764;SDS011;30484;52.382;5.260;2023-09-19T05:07:52;15.93;;;2.67;;
44764;SDS011;30484;52.382;5.260;2023-09-19T05:10:22;14.32;;;2.45;;
44764;SDS011;30484;52.382;5.260;2023-09-19T05:12:52;20.20;;;2.60;;
44764;SDS011;30484;52.382;5.260;2023-09-19T05:15:21;22.23;;;3.78;;
44764;SDS011;30484;52.382;5.260;2023-09-19T05:17:52;15.80;;;3.05;;
44764;SDS011;30484;52.382;5.260;2023-09-19T05:20:24;21.33;;;3.58;;
44764;SDS011;30484;52.382;5.260;2023-09-19T05:23:00;19.60;;;3.42;;
44764;SDS011;30484;52.382;5.260;2023-09-19T05:25:38;19.17;;;3.20;;
44764;SDS011;30484;52.382;5.260;2023-09-19T05:28:09;19.23;;;3.53;;
44764;SDS011;30484;52.382;5.260;2023-09-19T05:30:41;16.20;;;3.33;;
44764;SDS011;30484;52.382;5.260;2023-09-19T05:33:15;18.60;;;2.95;;
44764;SDS011;30484;52.382;5.260;2023-09-19T05:35:51;14.48;;;2.88;;
44764;SDS011;30484;52.382;5.260;2023-09-19T05:38:20;16.00;;;3.00;;
44764;SDS011;30484;52.382;5.260;2023-09-19T05:40:49;21.10;;;3.47;;
44764;SDS011;30484;52.382;5.260;2023-09-19T05:43:17;22.73;;;3.13;;
44764;SDS011;30484;52.382;5.260;2023-09-19T05:45:45;28.77;;;3.50;;
44764;SDS011;30484;52.382;5.260;2023-09-19T05:48:15;17.88;;;2.80;;
44764;SDS011;30484;52.382;5.260;2023-09-19T05:50:44;20.17;;;2.83;;
44764;SDS011;30484;52.382;5.260;2023-09-19T05:53:15;19.00;;;3.58;;
44764;SDS011;30484;52.382;5.260;2023-09-19T05:55:45;18.98;;;3.25;;
44764;SDS011;30484;52.382;5.260;2023-09-19T05:58:13;18.20;;;3.22;;
44764;SDS011;30484;52.382;5.260;2023-09-19T06:00:44;23.55;;;4.88;;
44764;SDS011;30484;52.382;5.260;2023-09-19T06:03:15;14.15;;;2.90;;
44764;SDS011;30484;52.382;5.260;2023-09-19T06:05:45;21.13;;;3.85;;
44764;SDS011;30484;52.382;5.260;2023-09-19T06:08:16;16.02;;;2.90;;
44764;SDS011;30484;52.382;5.260;2023-09-19T06:10:44;21.02;;;3.30;;
44764;SDS011;30484;52.382;5.260;2023-09-19T06:13:13;23.50;;;3.50;;
44764;SDS011;30484;52.382;5.260;2023-09-19T06:15:42;18.05;;;2.85;;
44764;SDS011;30484;52.382;5.260;2023-09-19T06:18:13;13.95;;;2.85;;
44764;SDS011;30484;52.382;5.260;2023-09-19T06:20:46;22.08;;;3.03;;
44764;SDS011;30484;52.382;5.260;2023-09-19T06:23:17;21.25;;;2.92;;
44764;SDS011;30484;52.382;5.260;2023-09-19T06:25:47;18.05;;;3.35;;
44764;SDS011;30484;52.382;5.260;2023-09-19T06:28:16;19.35;;;3.13;;
44764;SDS011;30484;52.382;5.260;2023-09-19T06:30:50;19.15;;;3.08;;
44764;SDS011;30484;52.382;5.260;2023-09-19T06:33:20;17.95;;;3.20;;
44764;SDS011;30484;52.382;5.260;2023-09-19T06:35:50;19.60;;;2.78;;
44764;SDS011;30484;52.382;5.260;2023-09-19T06:38:26;20.10;;;2.70;;
44764;SDS011;30484;52.382;5.260;2023-09-19T06:40:54;16.25;;;2.58;;
44764;SDS011;30484;52.382;5.260;2023-09-19T06:43:24;14.68;;;2.88;;
44764;SDS011;30484;52.382;5.260;2023-09-19T06:45:53;18.92;;;3.15;;
44764;SDS011;30484;52.382;5.260;2023-09-19T06:48:23;20.40;;;3.85;;
44764;SDS011;30484;52.382;5.260;2023-09-19T06:50:52;12.95;;;2.83;;
44764;SDS011;30484;52.382;5.260;2023-09-19T06:53:22;15.43;;;2.53;;
44764;SDS011;30484;52.382;5.260;2023-09-19T06:55:50;20.90;;;2.60;;
44764;SDS011;30484;52.382;5.260;2023-09-19T06:58:19;17.25;;;3.40;;
44764;SDS011;30484;52.382;5.260;2023-09-19T07:00:48;19.75;;;3.15;;
44764;SDS011;30484;52.382;5.260;2023-09-19T07:03:17;25.90;;;3.60;;
44764;SDS011;30484;52.382;5.260;2023-09-19T07:05:48;19.45;;;3.20;;
44764;SDS011;30484;52.382;5.260;2023-09-19T07:08:16;13.68;;;2.65;;
44764;SDS011;30484;52.382;5.260;2023-09-19T07:10:46;21.33;;;3.40;;
44764;SDS011;30484;52.382;5.260;2023-09-19T07:13:16;19.13;;;3.17;;
44764;SDS011;30484;52.382;5.260;2023-09-19T07:15:47;36.20;;;3.72;;
44764;SDS011;30484;52.382;5.260;2023-09-19T07:18:17;18.77;;;3.40;;
44764;SDS011;30484;52.382;5.260;2023-09-19T07:20:48;24.73;;;3.65;;
44764;SDS011;30484;52.382;5.260;2023-09-19T07:23:17;16.88;;;3.55;;
44764;SDS011;30484;52.382;5.260;2023-09-19T07:25:48;26.30;;;3.70;;
44764;SDS011;30484;52.382;5.260;2023-09-19T07:28:17;19.70;;;3.20;;
44764;SDS011;30484;52.382;5.260;2023-09-19T07:30:52;22.55;;;3.70;;
44764;SDS011;30484;52.382;5.260;2023-09-19T07:33:20;22.00;;;4.47;;
44764;SDS011;30484;52.382;5.260;2023-09-19T07:35:50;23.95;;;3.40;;
44764;SDS011;30484;52.382;5.260;2023-09-19T07:38:18;21.63;;;3.85;;
44764;SDS011;30484;52.382;5.260;2023-09-19T07:40:47;13.43;;;2.72;;
44764;SDS011;30484;52.382;5.260;2023-09-19T07:43:18;21.67;;;3.30;;
44764;SDS011;30484;52.382;5.260;2023-09-19T07:45:47;16.65;;;2.90;;
44764;SDS011;30484;52.382;5.260;2023-09-19T07:48:16;25.35;;;4.10;;
44764;SDS011;30484;52.382;5.260;2023-09-19T07:50:44;18.95;;;3.60;;
44764;SDS011;30484;52.382;5.260;2023-09-19T07:53:14;20.08;;;3.25;;
44764;SDS011;30484;52.382;5.260;2023-09-19T07:55:43;20.45;;;2.92;;
44764;SDS011;30484;52.382;5.260;2023-09-19T07:58:14;19.33;;;3.78;;
44764;SDS011;30484;52.382;5.260;2023-09-19T08:00:43;27.10;;;3.28;;
44764;SDS011;30484;52.382;5.260;2023-09-19T08:03:12;25.20;;;3.88;;
44764;SDS011;30484;52.382;5.260;2023-09-19T08:05:46;17.05;;;3.08;;
44764;SDS011;30484;52.382;5.260;2023-09-19T08:08:18;20.60;;;3.85;;
44764;SDS011;30484;52.382;5.260;2023-09-19T08:10:52;21.60;;;3.70;;
44764;SDS011;30484;52.382;5.260;2023-09-19T08:13:27;13.68;;;3.20;;
44764;SDS011;30484;52.382;5.260;2023-09-19T08:15:58;16.45;;;3.22;;
44764;SDS011;30484;52.382;5.260;2023-09-19T08:18:27;16.23;;;3.17;;
44764;SDS011;30484;52.382;5.260;2023-09-19T08:20:56;24.55;;;3.50;;
44764;SDS011;30484;52.382;5.260;2023-09-19T08:23:28;20.45;;;3.38;;
44764;SDS011;30484;52.382;5.260;2023-09-19T08:26:05;17.88;;;3.00;;
44764;SDS011;30484;52.382;5.260;2023-09-19T08:28:34;18.33;;;3.63;;
44764;SDS011;30484;52.382;5.260;2023-09-19T08:31:03;21.75;;;3.70;;
44764;SDS011;30484;52.382;5.260;2023-09-19T08:33:32;21.80;;;3.95;;
44764;SDS011;30484;52.382;5.260;2023-09-19T08:36:01;20.02;;;3.70;;
44764;SDS011;30484;52.382;5.260;2023-09-19T08:38:33;21.83;;;3.65;;
44764;SDS011;30484;52.382;5.260;2023-09-19T08:41:05;24.63;;;4.25;;
44764;SDS011;30484;52.382;5.260;2023-09-19T08:43:40;14.77;;;3.65;;
44764;SDS011;30484;52.382;5.260;2023-09-19T08:46:09;20.40;;;3.38;;
44764;SDS011;30484;52.382;5.260;2023-09-19T08:48:43;20.88;;;3.72;;
44764;SDS011;30484;52.382;5.260;2023-09-19T08:51:21;29.02;;;4.38;;
44764;SDS011;30484;52.382;5.260;2023-09-19T08:54:06;24.35;;;3.58;;
44764;SDS011;30484;52.382;5.260;2023-09-19T08:56:36;25.83;;;4.47;;
44764;SDS011;30484;52.382;5.260;2023-09-19T08:59:06;20.20;;;3.90;;
44764;SDS011;30484;52.382;5.260;2023-09-19T09:01:35;20.20;;;3.83;;
44764;SDS011;30484;52.382;5.260;2023-09-19T09:04:04;17.80;;;3.90;;
44764;SDS011;30484;52.382;5.260;2023-09-19T09:06:41;18.48;;;3.83;;
44764;SDS011;30484;52.382;5.260;2023-09-19T09:09:12;24.35;;;3.83;;
44764;SDS011;30484;52.382;5.260;2023-09-19T09:11:41;22.42;;;3.47;;
44764;SDS011;30484;52.382;5.260;2023-09-19T09:14:09;21.52;;;4.32;;
44764;SDS011;30484;52.382;5.260;2023-09-19T09:16:39;21.95;;;4.38;;
44764;SDS011;30484;52.382;5.260;2023-09-19T09:19:07;22.15;;;3.80;;
44764;SDS011;30484;52.382;5.260;2023-09-19T09:21:37;16.52;;;3.92;;
44764;SDS011;30484;52.382;5.260;2023-09-19T09:27:02;20.80;;;3.65;;
44764;SDS011;30484;52.382;5.260;2023-09-19T09:29:42;26.02;;;3.97;;
44764;SDS011;30484;52.382;5.260;2023-09-19T09:32:25;20.75;;;3.65;;
44764;SDS011;30484;52.382;5.260;2023-09-19T09:34:56;18.42;;;3.63;;
44764;SDS011;30484;52.382;5.260;2023-09-19T09:37:28;21.20;;;3.72;;
44764;SDS011;30484;52.382;5.260;2023-09-19T09:40:00;18.70;;;3.08;;
44764;SDS011;30484;52.382;5.260;2023-09-19T09:42:46;19.27;;;3.45;;
44764;SDS011;30484;52.382;5.260;2023-09-19T09:45:19;17.80;;;3.85;;
44764;SDS011;30484;52.382;5.260;2023-09-19T09:48:04;17.60;;;3.22;;
44764;SDS011;30484;52.382;5.260;2023-09-19T09:50:46;18.15;;;3.40;;
44764;SDS011;30484;52.382;5.260;2023-09-19T09:53:22;20.08;;;3.50;;
44764;SDS011;30484;52.382;5.260;2023-09-19T09:55:59;22.25;;;3.42;;
44764;SDS011;30484;52.382;5.260;2023-09-19T09:58:32;20.02;;;3.70;;
44764;SDS011;30484;52.382;5.260;2023-09-19T10:01:02;19.10;;;3.95;;
44764;SDS011;30484;52.382;5.260;2023-09-19T10:03:37;16.50;;;3.22;;
44764;SDS011;30484;52.382;5.260;2023-09-19T10:06:11;18.80;;;3.80;;
44764;SDS011;30484;52.382;5.260;2023-09-19T10:08:58;19.92;;;3.33;;
44764;SDS011;30484;52.382;5.260;2023-09-19T10:11:42;18.88;;;3.03;;
44764;SDS011;30484;52.382;5.260;2023-09-19T10:14:20;17.80;;;3.42;;
44764;SDS011;30484;52.382;5.260;2023-09-19T10:16:59;16.35;;;3.08;;
44764;SDS011;30484;52.382;5.260;2023-09-19T10:19:34;17.55;;;3.78;;
44764;SDS011;30484;52.382;5.260;2023-09-19T10:22:13;15.90;;;3.10;;
44764;SDS011;30484;52.382;5.260;2023-09-19T10:24:47;23.73;;;3.78;;
44764;SDS011;30484;52.382;5.260;2023-09-19T10:27:30;19.13;;;3.22;;
44764;SDS011;30484;52.382;5.260;2023-09-19T10:30:05;29.05;;;3.83;;
44764;SDS011;30484;52.382;5.260;2023-09-19T10:32:35;20.52;;;3.42;;
44764;SDS011;30484;52.382;5.260;2023-09-19T10:35:09;16.48;;;2.90;;
44764;SDS011;30484;52.382;5.260;2023-09-19T10:37:40;10.85;;;3.05;;
44764;SDS011;30484;52.382;5.260;2023-09-19T10:40:11;19.50;;;3.17;;
44764;SDS011;30484;52.382;5.260;2023-09-19T10:42:43;21.48;;;3.25;;
44764;SDS011;30484;52.382;5.260;2023-09-19T10:45:16;28.70;;;3.65;;
44764;SDS011;30484;52.382;5.260;2023-09-19T10:47:46;18.27;;;3.15;;
44764;SDS011;30484;52.382;5.260;2023-09-19T10:50:19;15.43;;;2.80;;
44764;SDS011;30484;52.382;5.260;2023-09-19T10:52:49;19.15;;;3.35;;
44764;SDS011;30484;52.382;5.260;2023-09-19T10:57:57;17.88;;;2.85;;
44764;SDS011;30484;52.382;5.260;2023-09-19T11:00:53;16.30;;;2.88;;
44764;SDS011;30484;52.382;5.260;2023-09-19T11:03:23;12.23;;;2.45;;
44764;SDS011;30484;52.382;5.260;2023-09-19T11:06:05;17.00;;;2.38;;
44764;SDS011;30484;52.382;5.260;2023-09-19T11:08:56;15.80;;;2.85;;
44764;SDS011;30484;52.382;5.260;2023-09-19T11:11:49;10.25;;;2.33;;
44764;SDS011;30484;52.382;5.260;2023-09-19T11:14:37;8.57;;;1.85;;
44764;SDS011;30484;52.382;5.260;2023-09-19T11:20:22;12.15;;;2.05;;
44764;SDS011;30484;52.382;5.260;2023-09-19T11:23:18;18.20;;;2.28;;
44764;SDS011;30484;52.382;5.260;2023-09-19T11:25:53;12.77;;;2.25;;
44764;SDS011;30484;52.382;5.260;2023-09-19T11:28:28;16.33;;;2.70;;
44764;SDS011;30484;52.382;5.260;2023-09-19T11:40:29;14.43;;;2.40;;
44764;SDS011;30484;52.382;5.260;2023-09-19T11:42:58;11.82;;;2.22;;
44764;SDS011;30484;52.382;5.260;2023-09-19T11:48:40;10.00;;;2.20;;
44764;SDS011;30484;52.382;5.260;2023-09-19T11:51:11;11.33;;;2.20;;
44764;SDS011;30484;52.382;5.260;2023-09-19T11:53:49;12.02;;;2.35;;
44764;SDS011;30484;52.382;5.260;2023-09-19T11:56:19;12.25;;;2.35;;
44764;SDS011;30484;52.382;5.260;2023-09-19T11:58:51;8.25;;;1.92;;
44764;SDS011;30484;52.382;5.260;2023-09-19T12:01:22;12.55;;;2.65;;
44764;SDS011;30484;52.382;5.260;2023-09-19T12:03:59;8.13;;;2.03;;
44764;SDS011;30484;52.382;5.260;2023-09-19T12:06:33;10.15;;;2.03;;
44764;SDS011;30484;52.382;5.260;2023-09-19T12:09:11;12.55;;;2.00;;
44764;SDS011;30484;52.382;5.260;2023-09-19T12:11:43;14.68;;;2.80;;
44764;SDS011;30484;52.382;5.260;2023-09-19T12:14:11;10.18;;;2.13;;
44764;SDS011;30484;52.382;5.260;2023-09-19T12:16:51;8.70;;;1.85;;
44764;SDS011;30484;52.382;5.260;2023-09-19T12:19:24;9.80;;;2.00;;
44764;SDS011;30484;52.382;5.260;2023-09-19T12:21:56;10.73;;;2.28;;
44764;SDS011;30484;52.382;5.260;2023-09-19T12:24:30;12.73;;;1.92;;
44764;SDS011;30484;52.382;5.260;2023-09-19T12:27:06;7.53;;;2.00;;
44764;SDS011;30484;52.382;5.260;2023-09-19T12:29:42;9.82;;;1.65;;
44764;SDS011;30484;52.382;5.260;2023-09-19T12:32:12;10.05;;;1.70;;
44764;SDS011;30484;52.382;5.260;2023-09-19T12:34:51;23.65;;;1.83;;
44764;SDS011;30484;52.382;5.260;2023-09-19T12:37:21;9.70;;;2.00;;
44764;SDS011;30484;52.382;5.260;2023-09-19T12:40:03;12.48;;;1.90;;
44764;SDS011;30484;52.382;5.260;2023-09-19T12:42:43;10.23;;;2.10;;
44764;SDS011;30484;52.382;5.260;2023-09-19T12:45:12;9.00;;;1.60;;
44764;SDS011;30484;52.382;5.260;2023-09-19T12:51:00;8.17;;;1.70;;
44764;SDS011;30484;52.382;5.260;2023-09-19T12:53:33;9.55;;;1.75;;
44764;SDS011;30484;52.382;5.260;2023-09-19T12:56:08;8.75;;;2.38;;
44764;SDS011;30484;52.382;5.260;2023-09-19T12:58:49;12.55;;;2.13;;
44764;SDS011;30484;52.382;5.260;2023-09-19T13:01:21;12.18;;;2.08;;
44764;SDS011;30484;52.382;5.260;2023-09-19T13:04:13;12.30;;;2.10;;
44764;SDS011;30484;52.382;5.260;2023-09-19T13:06:49;16.75;;;2.10;;
44764;SDS011;30484;52.382;5.260;2023-09-19T13:09:18;8.07;;;2.10;;
44764;SDS011;30484;52.382;5.260;2023-09-19T13:11:48;17.20;;;1.63;;
44764;SDS011;30484;52.382;5.260;2023-09-19T13:14:17;9.32;;;1.67;;
44764;SDS011;30484;52.382;5.260;2023-09-19T13:17:01;10.50;;;1.95;;
44764;SDS011;30484;52.382;5.260;2023-09-19T13:19:40;9.35;;;1.77;;
44764;SDS011;30484;52.382;5.260;2023-09-19T13:22:40;14.45;;;2.08;;
44764;SDS011;30484;52.382;5.260;2023-09-19T13:25:13;10.30;;;1.75;;
44764;SDS011;30484;52.382;5.260;2023-09-19T13:27:46;6.93;;;1.60;;
44764;SDS011;30484;52.382;5.260;2023-09-19T13:30:18;9.65;;;2.00;;
44764;SDS011;30484;52.382;5.260;2023-09-19T13:32:48;8.38;;;1.83;;
44764;SDS011;30484;52.382;5.260;2023-09-19T13:35:16;8.48;;;1.65;;
44764;SDS011;30484;52.382;5.260;2023-09-19T13:37:46;14.40;;;1.60;;
44764;SDS011;30484;52.382;5.260;2023-09-19T13:40:21;8.68;;;2.00;;
44764;SDS011;30484;52.382;5.260;2023-09-19T13:42:50;7.00;;;1.80;;
44764;SDS011;30484;52.382;5.260;2023-09-19T13:45:20;11.65;;;1.70;;
44764;SDS011;30484;52.382;5.260;2023-09-19T13:47:51;8.30;;;1.67;;
44764;SDS011;30484;52.382;5.260;2023-09-19T13:50:20;8.50;;;1.58;;
44764;SDS011;30484;52.382;5.260;2023-09-19T13:52:52;7.35;;;1.85;;
44764;SDS011;30484;52.382;5.260;2023-09-19T13:55:21;8.98;;;1.70;;
44764;SDS011;30484;52.382;5.260;2023-09-19T13:57:49;6.10;;;1.80;;
44764;SDS011;30484;52.382;5.260;2023-09-19T14:00:25;10.10;;;2.15;;
44764;SDS011;30484;52.382;5.260;2023-09-19T14:02:54;11.13;;;1.83;;
44764;SDS011;30484;52.382;5.260;2023-09-19T14:05:23;7.22;;;2.13;;
44764;SDS011;30484;52.382;5.260;2023-09-19T14:07:55;10.98;;;2.08;;
44764;SDS011;30484;52.382;5.260;2023-09-19T14:10:26;8.60;;;1.70;;
44764;SDS011;30484;52.382;5.260;2023-09-19T14:13:00;6.97;;;1.98;;
44764;SDS011;30484;52.382;5.260;2023-09-19T14:15:28;12.13;;;2.30;;
44764;SDS011;30484;52.382;5.260;2023-09-19T14:17:56;6.07;;;2.05;;
44764;SDS011;30484;52.382;5.260;2023-09-19T14:20:26;6.63;;;1.95;;
44764;SDS011;30484;52.382;5.260;2023-09-19T14:22:59;7.38;;;2.17;;
44764;SDS011;30484;52.382;5.260;2023-09-19T14:25:28;8.63;;;2.17;;
44764;SDS011;30484;52.382;5.260;2023-09-19T14:27:56;10.05;;;1.83;;
44764;SDS011;30484;52.382;5.260;2023-09-19T14:30:25;8.60;;;2.17;;
44764;SDS011;30484;52.382;5.260;2023-09-19T14:32:54;8.43;;;2.35;;
44764;SDS011;30484;52.382;5.260;2023-09-19T14:35:25;10.38;;;2.03;;
44764;SDS011;30484;52.382;5.260;2023-09-19T14:37:53;11.82;;;2.50;;
44764;SDS011;30484;52.382;5.260;2023-09-19T14:40:23;11.43;;;2.30;;
44764;SDS011;30484;52.382;5.260;2023-09-19T14:42:55;8.27;;;2.22;;
44764;SDS011;30484;52.382;5.260;2023-09-19T14:45:30;7.95;;;2.03;;
44764;SDS011;30484;52.382;5.260;2023-09-19T14:47:58;11.85;;;2.72;;
44764;SDS011;30484;52.382;5.260;2023-09-19T14:50:27;12.48;;;2.72;;
44764;SDS011;30484;52.382;5.260;2023-09-19T14:52:56;11.88;;;2.30;;
44764;SDS011;30484;52.382;5.260;2023-09-19T14:55:29;11.95;;;2.45;;
44764;SDS011;30484;52.382;5.260;2023-09-19T14:58:04;13.00;;;2.60;;
44764;SDS011;30484;52.382;5.260;2023-09-19T15:00:32;19.58;;;2.90;;
44764;SDS011;30484;52.382;5.260;2023-09-19T15:03:01;12.77;;;2.70;;
44764;SDS011;30484;52.382;5.260;2023-09-19T15:05:30;7.32;;;2.42;;
44764;SDS011;30484;52.382;5.260;2023-09-19T15:08:00;10.23;;;2.55;;
44764;SDS011;30484;52.382;5.260;2023-09-19T15:10:30;11.85;;;2.70;;
44764;SDS011;30484;52.382;5.260;2023-09-19T15:12:59;13.02;;;2.95;;
44764;SDS011;30484;52.382;5.260;2023-09-19T15:15:27;12.68;;;3.08;;
44764;SDS011;30484;52.382;5.260;2023-09-19T15:17:56;13.57;;;2.58;;
44764;SDS011;30484;52.382;5.260;2023-09-19T15:20:24;10.80;;;2.92;;
44764;SDS011;30484;52.382;5.260;2023-09-19T15:22:53;12.68;;;2.72;;
44764;SDS011;30484;52.382;5.260;2023-09-19T15:25:22;14.50;;;3.13;;
44764;SDS011;30484;52.382;5.260;2023-09-19T15:27:53;10.85;;;3.03;;
44764;SDS011;30484;52.382;5.260;2023-09-19T15:30:21;13.05;;;2.92;;
44764;SDS011;30484;52.382;5.260;2023-09-19T15:32:50;11.82;;;2.65;;